Airfield :
LOGIN :

Register | Disclaimer

   EN    FR    IT 

 










Legend :    VFR   Marginal VFR   IFR   Intensive IFR   Very Intensive IFR
Visi :
Ceiling :
>= 8 km
>= 3000ft
5 to 8 km
1000 to 3000 ft
1500m to 5 km
500 to 1000 ft
800 to 1500m
200 to 500 ft
< 800m
< 200 ft
Symbols :   Thunderstorms  Fog  Heavy snow  Heavy precipitations  Wind > 20 kt
SIGMETs :     Misc.  Thunderstorms  Icing  Turbulence  Mountain Waves  Volcanic Ashes







- Airport Elevation : 580 ft
- Download approach charts


LFOA - Avord

CURRENT METAR :
  • 260000Z AUTO 12006KT CAVOK 06/05 Q1011

EXPIRED METARs :
  • 252330Z AUTO 13005KT CAVOK 06/06 Q1011 TEMPO 1200 BCFG VV///
  • 252300Z AUTO 14006KT 9999 BKN044 OVC210 07/06 Q1011 TEMPO 1200 BCFG VV///
  • 252230Z AUTO 14006KT 9999 BKN045 BKN054 OVC200 07/06 Q1011 TEMPO 1200 BCFG VV///
  • 252200Z AUTO 14007KT 9999 FEW042 BKN210 OVC230 07/06 Q1011 NOSIG
  • 252130Z AUTO 13007KT CAVOK 06/06 Q1011 NOSIG

TAF TAF LFOA
Valid from the 25 at 21:00 until the 26 at 21:00 UTC


252000Z 2521/2621 16007KT CAVOK
PROB30 2600/2605 VRB01KT 1200 BCFG VV///
BECMG 2606/2608 22010KT SCT020TCU
TEMPO 2609/2620 22010G20KT 4000 SHRA SCT020TCU
PROB30
TEMPO 2612/2618 22020G30KT 2500 TSRA SCT010 BKN020CB
No reported NOTAMs for that airfield.
1 SIGMET reported for the Paris FIR (LFFF) :
 
Severe turbulence
LFFF SIGMET 10 VALID 252150/260130 LFPW
LFFF PARIS FIR/UIR SEV TURB OBS WI N5100 E00130 - N5115 E00200 - N5030 E00400 - N4800 E00400 - N4800 E00115 - N5100 E00130 FL180/240 MOV E 15KT NC=



MET'MAP, your aeronautical weather chart ! - Copyright ORBIFLY December 2007 - Disclaimer

ORBIFLY MET'MAP TEAM :

Programming & Development : Alexandra Zaïnal
Concept & Development : Baudouin d'Aumeries
Co-Development & Prog : Marc-Olivier Méhu
Technical & hardware support : Manuel Goepfert

Contact : metmap@orbifly.com




SOURCES & CREDITS :

   NOAA